NCAR-RAP Real-Time Weather Data

Output produced by METARs form (10 April 2020  07:29 UTC)
found at http://weather.rap.ucar.edu/surface/
 
KEVV 100654Z AUTO 31007KT 10SM CLR 04/M08 A3005 RMK AO2 SLP177 T00391083
KEVV 100554Z AUTO 34012G23KT 10SM CLR 05/M09 A3004 RMK AO2 PK WND 34028/0531 SLP174 T00501094 10139 20050 401560050 51032
KEVV 100454Z AUTO 33017G31KT 10SM CLR 06/M09 A3001 RMK AO2 PK WND 34035/0359 SLP164 T00611094
KEVV 100354Z AUTO 34018G34KT 10SM BKN095 07/M06 A2998 RMK AO2 PK WND 32034/0354 SLP153 T00721056
KEVV 100254Z 34014G30KT 10SM OVC095 08/M02 A2995 RMK AO2 PK WND 35030/0220 SLP142 T00831017 53039
KEVV 100154Z VRB05KT 10SM BKN100 12/M07 A2988 RMK AO2 SLP117 T01171067
KEVV 100054Z 32015G24KT 10SM BKN090 13/M07 A2986 RMK AO2 PK WND 28027/0004 SLP109 T01281067
KEVV 092354Z 30010G23KT 10SM CLR 14/M07 A2983 RMK AO2 PK WND 28027/2305 SLP101 T01441067 10156 20128 55003
KEVV 092254Z 28012G22KT 250V310 10SM CLR 16/M04 A2982 RMK AO2 PK WND 27027/2243 SLP098 T01561044
KEVV 092154Z 30013G22KT 10SM FEW080 16/M04 A2982 RMK AO2 SLP098 T01561039
KEVV 092054Z 28009G20KT 10SM FEW075 15/M03 A2984 RMK AO2 PK WND 23031/2023 SLP104 T01501033 56022
KEVV 091954Z 28014G25KT 10SM CLR 14/M04 A2986 RMK AO2 SLP112 T01441039
KEVV 091854Z 29010G23KT 10SM CLR 14/M02 A2988 RMK AO2 SLP118 T01441022
KEVV 091754Z 28013G24KT 10SM SCT065 13/M03 A2991 RMK AO2 PK WND 28027/1706 SLP127 T01331028 10139 20089 58013
KEVV 091654Z 30013G20KT 10SM CLR 14/M03 A2993 RMK AO2 SLP133 T01391033
KEVV 091554Z 29007G20KT 250V330 10SM CLR 12/M03 A2995 RMK AO2 SLP141 T01171033
KEVV 091454Z 32009G19KT 10SM CLR 12/M03 A2995 RMK AO2 SLP140 T01171033 50010
KEVV 091354Z 30010KT 10SM CLR 11/M02 A2996 RMK AO2 SLP143 T01061022
KEVV 091254Z 32006KT 10SM CLR 10/M02 A2995 RMK AO2 SLP139 T01001017
KEVV 091154Z 32006KT 10SM CLR 09/M01 A2992 RMK AO2 SLP129 T00891011 10150 20089 51026
KEVV 091054Z 33012G19KT 10SM CLR 09/M01 A2990 RMK AO2 SLP122 T00941011
KEVV 090954Z AUTO 32009G17KT 10SM CLR 11/04 A2987 RMK AO2 SLP113 T01060039
KEVV 090854Z AUTO 33013G24KT 10SM CLR 11/07 A2984 RMK AO2 SLP102 T01110067 53032